Stations météo

réclame
Mon MeteoGroup
Schmücke, Allemagne (10552): Température de l'air & dewpoint: 15.02.2018 12:00:00 - 21.02.2018 12:00:00 (CET)Schmücke, Allemagne (10552): Température de l'air 5cm & Température de l'air -5cm: 15.02.2018 12:00:00 - 21.02.2018 12:00:00 (CET)Schmücke, Allemagne (10552): Température de l'air -20cm & Température de l'air -100cm: 15.02.2018 12:00:00 - 21.02.2018 12:00:00 (CET)Schmücke, Allemagne (10552): Vitesse du vent & gusts: 15.02.2018 12:00:00 - 21.02.2018 12:00:00 (CET)Schmücke, Allemagne (10552): Direction du vent: 15.02.2018 12:00:00 - 21.02.2018 12:00:00 (CET)Schmücke, Allemagne (10552): visibility: 15.02.2018 12:00:00 - 21.02.2018 12:00:00 (CET)Schmücke, Allemagne (10552): Ensoleillement: 15.02.2018 12:00:00 - 21.02.2018 12:00:00 (CET)Schmücke, Allemagne (10552): Quantités de précipitations: 15.02.2018 12:00:00 - 21.02.2018 12:00:00 (CET)
Date & Time tt [°C] td [°C] tt 5cm [°C] tt -5cm [°C] tt -20cm [°C] tt -100cm [°C] ff [km/h] ff [knt] fx [km/h] fx [knt] dd vv [km] sd [min] rr [mm]
21.02.2018 12:00:00 -7,0 -8,2 -0,2 0,0 0,5 2,1 25 13 46 25 NE 2,1 2 0,0
21.02.2018 11:00:00 -7,5 -8,7 -0,2 0,0 0,5 2,1 24 13 43 23 NE 2,0 0 0,0
21.02.2018 10:00:00 -7,7 -8,9 -0,2 0,0 0,5 2,1 26 14 44 24 NE 2,1 0 0,0
21.02.2018 09:00:00 -7,9 -9,1 -0,2 0,0 0,5 2,1 26 14 45 24 NE 1,8 0 0,0
21.02.2018 08:00:00 -8,0 -9,3 -0,2 0,0 0,5 2,1 27 15 46 25 NE 2,3 0 0,0
21.02.2018 07:00:00 -7,9 -9,2 -0,2 0,0 0,5 2,1 26 14 42 23 NE 2,4 0 0,0
21.02.2018 06:00:00 -7,7 -8,9 -0,2 0,0 0,5 2,1 24 13 36 19 NE 1,0 0 0,0
21.02.2018 05:00:00 -7,6 -8,7 -0,2 0,0 0,5 2,1 19 10 36 19 NE 0,7 0 0,0
21.02.2018 04:00:00 -7,0 -8,0 -0,2 0,0 0,5 2,1 19 10 37 20 NNE 0,3 0 0,0
21.02.2018 03:00:00 -6,8 -8,0 -0,2 0,0 0,5 2,1 20 11 35 19 NE 2,3 0 0,0
21.02.2018 02:00:00 -6,5 -7,5 -0,2 0,0 0,5 2,1 20 11 35 19 NE 0,7 0 0,0
21.02.2018 01:00:00 -6,2 -7,3 -0,2 0,0 0,5 2,1 19 10 33 18 NE 1,4 0 0,0
21.02.2018 00:00:00 -5,9 -7,0 -0,2 0,0 0,5 2,1 18 10 35 19 NE 1,4 0 0,0
20.02.2018 23:00:00 -5,9 -6,9 -0,2 0,0 0,5 2,1 20 11 36 20 NE 1,1 0 0,0
20.02.2018 22:00:00 -6,1 -7,1 -0,2 0,0 0,5 2,1 21 11 36 19 NE 1,0 0 0,0
20.02.2018 21:00:00 -6,5 -7,6 -0,2 0,0 0,5 2,1 19 10 31 17 NE 1,6 0 0,0
20.02.2018 20:00:00 -6,9 -8,0 -0,2 0,0 0,5 2,1 19 10 29 16 NE 0,9 0 0,0
20.02.2018 19:00:00 -6,7 -7,8 -0,2 0,0 0,5 2,1 13 7 29 15 NE 1,4 0 0,0
20.02.2018 18:00:00 -6,7 -7,7 -0,2 0,0 0,5 2,1 13 7 24 13 NE 0,5 0 0,0
20.02.2018 17:00:00 -6,5 -7,5 -0,2 0,0 0,5 2,1 11 6 25 14 NE 1,2 0 0,0
20.02.2018 16:00:00 -6,1 -7,0 -0,2 0,0 0,5 2,1 10 5 22 12 NE 1,1 0 0,0
20.02.2018 15:00:00 -6,1 -7,2 -0,2 0,0 0,5 2,1 8 5 22 12 NE 1,8 0 0,0
20.02.2018 14:00:00 -5,9 -7,0 -0,3 0,0 0,5 2,2 9 5 23 13 ENE 1,8 0 0,0
20.02.2018 13:00:00 -5,7 -6,5 -0,2 0,0 0,5 2,2 9 5 22 12 NE 1,0 0 0,0
20.02.2018 12:00:00 -5,9 -6,8 -0,2 0,1 0,5 2,2 13 7 27 14 ENE 1,4 0 0,0
20.02.2018 11:00:00 -6,1 -7,1 -0,2 0,1 0,5 2,2 16 8 28 15 NE 1,2 0 0,0
20.02.2018 10:00:00 -6,2 -7,1 -0,2 0,1 0,5 2,2 14 7 26 14 NE 1,1 0 0,0
20.02.2018 09:00:00 -6,5 -7,3 -0,2 0,1 0,5 2,2 13 7 27 15 NE 1,0 0 0,0
20.02.2018 08:00:00 -6,9 -7,8 -0,2 0,1 0,5 2,2 13 7 25 14 NE 1,2 0 0,0
20.02.2018 07:00:00 -6,7 -7,7 -0,2 0,1 0,5 2,2 14 8 26 14 NE 1,6 0 0,0
20.02.2018 06:00:00 -6,8 -8,0 -0,2 0,1 0,5 2,2 14 8 26 14 NE 3,2 0 0,0
20.02.2018 05:00:00 -6,9 -8,0 -0,2 0,1 0,5 2,2 14 8 23 12 NE 2,7 0 0,0
20.02.2018 04:00:00 -7,5 -8,7 -0,2 0,1 0,5 2,2 11 6 17 9 NE 3,0 0 0,0
20.02.2018 03:00:00 -7,4 -8,5 -0,2 0,1 0,5 2,2 8 5 12 7 NE 3,7 0 0,0
20.02.2018 02:00:00 -7,3 -8,4 -0,2 0,1 0,5 2,2 10 5 16 9 ENE 3,6 0 0,0
20.02.2018 01:00:00 -7,0 -8,1 -0,2 0,1 0,5 2,2 12 6 17 9 ENE 3,2 0 0,0
20.02.2018 00:00:00 -6,7 -7,7 -0,2 0,1 0,5 2,2 11 6 16 9 ENE 3,6 0 0,0
19.02.2018 23:00:00 -6,8 -7,9 -0,2 0,1 0,5 2,2 8 4 14 8 NE 4,0 0 0,0
19.02.2018 22:00:00 -6,4 -7,4 -0,2 0,1 0,5 2,2 12 6 18 10 ENE 4,5 0 0,0
19.02.2018 21:00:00 -6,1 -7,2 -0,2 0,1 0,5 2,2 15 8 21 11 ENE 5 0 0,0
19.02.2018 20:00:00 -5,5 -6,6 -0,2 0,1 0,5 2,2 13 7 19 11 ENE 5 0 0,0
19.02.2018 19:00:00 -5,4 -6,4 -0,2 0,1 0,5 2,2 11 6 20 11 ENE 5 0 0,0
19.02.2018 18:00:00 -4,6 -6,1 -0,2 0,1 0,5 2,2 13 7 19 10 ENE 7 0 0,0
19.02.2018 17:00:00 -3,5 -5,2 -0,2 0,1 0,5 2,2 8 5 14 8 NE 9 0 0,0
19.02.2018 16:00:00 -3,1 -5,6 -0,2 0,1 0,5 2,2 7 4 11 6 ENE 12 0 0,0
19.02.2018 15:00:00 -2,2 -5,0 -0,2 0,1 0,5 2,2 4 2 13 7 N 16 15 0,0
19.02.2018 14:00:00 -2,8 -5,9 -0,2 0,1 0,5 2,2 4 2 13 7 NE 19 0 0,0
19.02.2018 13:00:00 -2,9 -5,4 -0,2 0,1 0,5 2,2 5 3 10 6 ESE 21 0 0,0
19.02.2018 12:00:00 -3,7 -6,0 -0,2 0,1 0,5 2,2 3 2 11 6 ENE 18 18 0,0
19.02.2018 11:00:00 -4,6 -6,1 -0,2 0,1 0,5 2,2 7 4 16 9 SW 13 0 0,0
19.02.2018 10:00:00 -5,3 -6,5 -0,2 0,1 0,5 2,2 11 6 18 10 SW 12 1 0,0
19.02.2018 09:00:00 -6,1 -7,1 -0,2 0,1 0,5 2,2 13 7 17 9 SW 9 0 0,0
19.02.2018 08:00:00 -6,7 -7,6 -0,2 0,1 0,5 2,2 11 6 19 11 SW 8 0 0,0
19.02.2018 07:00:00 -6,7 -7,6 -0,2 0,1 0,5 2,2 15 8 22 12 SSW 6 0 0,0
19.02.2018 06:00:00 -6,9 -7,9 -0,2 0,1 0,5 2,2 16 9 23 13 SW 7 0 0,0
19.02.2018 05:00:00 -6,8 -7,8 -0,2 0,1 0,5 2,2 12 6 19 10 SW 8 0 0,0
19.02.2018 04:00:00 -6,6 -7,8 -0,2 0,1 0,5 2,2 14 7 22 12 SW 9 0 0,0
19.02.2018 03:00:00 -6,4 -7,6 -0,2 0,1 0,5 2,2 17 9 26 14 SW 8 0 0,0
19.02.2018 02:00:00 -6,3 -7,4 -0,2 0,1 0,5 2,2 18 10 26 14 SW 8 0 0,0
19.02.2018 01:00:00 -6,0 -7,2 -0,2 0,1 0,5 2,2 16 9 29 16 SW 9 0 0,0
19.02.2018 00:00:00 -5,6 -7,0 -0,2 0,1 0,5 2,2 21 12 33 18 SW 9 0 0,0
18.02.2018 23:00:00 -5,3 -6,8 -0,2 0,1 0,5 2,2 17 9 29 16 SW 11 0 0,0
18.02.2018 22:00:00 -4,9 -6,6 -0,2 0,1 0,5 2,2 17 9 29 16 SSW 11 0 0,0
18.02.2018 21:00:00 -4,8 -6,4 -0,2 0,1 0,5 2,2 16 9 28 15 SSW 12 0 0,0
18.02.2018 20:00:00 -4,8 -6,3 -0,2 0,1 0,5 2,2 16 9 28 15 SW 11 0 0,0
18.02.2018 19:00:00 -4,5 -6,4 -0,2 0,1 0,5 2,2 17 9 27 15 SSW 14 0 0,0
18.02.2018 18:00:00 -3,9 -5,9 -0,2 0,1 0,5 2,2 14 8 23 13 S 16 19 0,0
18.02.2018 17:00:00 -2,5 -5,1 -0,2 0,1 0,5 2,2 9 5 17 9 S 21 18 0,0
18.02.2018 16:00:00 -1,6 -4,8 -0,2 0,1 0,5 2,2 8 4 20 11 SSE 27 9 0,0
18.02.2018 15:00:00 -1,1 -4,0 -0,2 0,1 0,5 2,2 4 2 21 11 SE 30 0 0,0
18.02.2018 14:00:00 -1,5 -4,6 -0,2 0,1 0,5 2,2 5 3 14 8 S 24 1 0,0
18.02.2018 13:00:00 -2,2 -4,5 -0,2 0,1 0,5 2,2 8 4 18 10 SE 26 0 0,0
18.02.2018 12:00:00 -2,5 -5,0 -0,2 0,1 0,5 2,2 8 4 20 11 SSE 24 8 0,0
18.02.2018 11:00:00 -3,1 -4,9 -0,2 0,1 0,5 2,2 8 5 21 11 SSE 21 9 0,0
18.02.2018 10:00:00 -3,1 -4,6 -0,2 0,1 0,5 2,2 11 6 21 11 ESE 20 59 0,0
18.02.2018 09:00:00 -4,2 -5,1 -0,3 0,1 0,5 2,2 8 5 17 9 E 19 15 0,0
18.02.2018 08:00:00 -4,7 -5,7 -0,2 0,1 0,5 2,2 9 5 19 10 E 17 0 0,0
18.02.2018 07:00:00 -4,9 -5,9 -0,2 0,1 0,5 2,2 11 6 25 14 E 12 0 0,0
18.02.2018 06:00:00 -4,7 -5,7 -0,2 0,1 0,5 2,2 12 7 22 12 ENE 8 0 0,0
18.02.2018 05:00:00 -4,6 -5,5 -0,2 0,1 0,5 2,2 16 8 29 16 ENE 3,5 0 0,0
18.02.2018 04:00:00 -4,4 -5,3 -0,3 0,1 0,5 2,2 19 10 30 16 ENE 3,5 0 0,0
18.02.2018 03:00:00 -4,4 -5,3 -0,3 0,1 0,5 2,2 19 10 32 17 ENE 3,8 0 0,0
18.02.2018 02:00:00 -4,7 -5,6 -0,2 0,1 0,5 2,2 16 9 32 17 ENE 2,1 0 0,0
18.02.2018 01:00:00 -4,4 -5,2 -0,2 0,1 0,5 2,2 21 11 35 19 ENE 1,6 0 0,0
18.02.2018 00:00:00 -4,0 -4,8 -0,3 0,1 0,5 2,2 19 10 29 16 NE 1,1 0 0,0
17.02.2018 23:00:00 -4,0 -4,6 -0,2 0,1 0,5 2,2 12 6 26 14 NE 0,2 0 0,0
17.02.2018 22:00:00 -4,2 -5,0 -0,2 0,1 0,5 2,2 14 7 31 17 NE 1,6 0 0,0
17.02.2018 21:00:00 -4,2 -4,9 -0,2 0,1 0,5 2,2 16 9 35 19 NE 1,2 0 0,0
17.02.2018 20:00:00 -4,1 -4,7 -0,2 0,1 0,5 2,2 14 8 32 17 NE 0,2 0 0,0
17.02.2018 19:00:00 -4,1 -4,8 -0,2 0,1 0,5 2,2 15 8 32 17 NE 0,9 0 0,0
17.02.2018 18:00:00 -3,9 -4,6 -0,2 0,1 0,5 2,2 17 9 33 18 NE 0,8 0 0,0
17.02.2018 17:00:00 -3,6 -4,3 -0,2 0,1 0,5 2,2 15 8 32 18 NE 1,7 0 0,0
17.02.2018 16:00:00 -3,3 -4,2 -0,2 0,1 0,5 2,2 17 9 37 20 NE 2,8 0 0,0
17.02.2018 15:00:00 -3,2 -4,6 -0,2 0,1 0,5 2,2 20 11 37 20 ENE 6 0 0,0
17.02.2018 14:00:00 -3,2 -4,7 -0,2 0,1 0,5 2,2 22 12 41 22 ENE 8 0 0,0
17.02.2018 13:00:00 -3,2 -4,6 -0,2 0,1 0,5 2,2 21 12 38 21 ENE 8 0 0,0
17.02.2018 12:00:00 -3,3 -4,9 -0,2 0,1 0,5 2,2 19 11 35 19 ENE 7 0 0,0
17.02.2018 11:00:00 -3,5 -5,0 -0,2 0,1 0,5 2,2 18 10 29 16 ENE 7 0 0,0
17.02.2018 10:00:00 -4,2 -5,8 -0,2 0,1 0,5 2,2 18 10 35 19 ENE 8 0 0,0
17.02.2018 09:00:00 -4,7 -6,1 -0,2 0,1 0,5 2,2 21 12 31 17 ENE 9 0 0,0
17.02.2018 08:00:00 -5,1 -6,5 -0,2 0,1 0,5 2,2 18 10 28 15 ENE 9 0 0,0
17.02.2018 07:00:00 -5,1 -6,4 -0,2 0,1 0,5 2,2 16 9 23 13 E 10 0 0,0
17.02.2018 06:00:00 -5,3 -6,4 -0,2 0,1 0,5 2,2 13 7 19 11 E 9 0 0,0
17.02.2018 05:00:00 -5,6 -6,6 -0,2 0,1 0,5 2,2 13 7 19 10 ENE 6 0 0,0
17.02.2018 04:00:00 -5,2 -6,3 -0,2 0,1 0,5 2,2 12 7 18 10 ENE 7 0 0,0
17.02.2018 03:00:00 -5,2 -6,2 -0,2 0,1 0,5 2,2 9 5 12 7 NE 6 0 0,0
17.02.2018 02:00:00 -5,0 -5,9 -0,2 0,1 0,5 2,2 9 5 11 6 NNE 8 0 0,0
17.02.2018 01:00:00 -5,0 -5,9 -0,2 0,1 0,5 2,2 8 4 14 7 NNW 14 0 0,0
17.02.2018 00:00:00 -4,4 -5,3 -0,2 0,1 0,5 2,2 8 5 13 7 NW 11 0 0,0
16.02.2018 23:00:00 -4,0 -4,7 -0,2 0,1 0,5 2,2 7 4 11 6 WNW 7 0 0,0
16.02.2018 22:00:00 -3,9 -4,6 -0,2 0,1 0,5 2,2 6 4 15 8 W 8 0 0,0
16.02.2018 21:00:00 -3,0 -3,7 -0,2 0,1 0,5 2,2 8 4 20 11 W 6 0 0,0
16.02.2018 20:00:00 -2,9 -3,6 -0,2 0,1 0,5 2,2 13 7 21 11 WSW 0,6 0 0,0
16.02.2018 19:00:00 -2,6 -3,1 -0,2 0,1 0,5 2,2 8 4 19 10 WSW 0,1 0 0,0
16.02.2018 18:00:00 -2,5 -3,1 -0,2 0,1 0,5 2,2 9 5 27 15 SW 0,3 0 0,0
16.02.2018 17:00:00 -2,5 -3,0 -0,2 0,1 0,5 2,2 17 9 29 15 WSW 0,1 0 0,0
16.02.2018 16:00:00 -2,4 -2,9 -0,2 0,1 0,5 2,2 16 9 23 12 WSW 0,1 0 0,0
16.02.2018 15:00:00 -2,6 -3,1 -0,2 0,1 0,5 2,2 13 7 25 14 WSW 0,2 0 0,0
16.02.2018 14:00:00 -2,3 -2,7 -0,2 0,1 0,5 2,2 14 8 28 15 WSW 0,2 0 0,0
16.02.2018 13:00:00 -1,7 -2,2 -0,2 0,1 0,5 2,2 16 9 30 16 SW 0,8 1 0,0
16.02.2018 12:00:00 -1,5 -2,2 -0,2 0,1 0,5 2,2 20 11 29 16 SW 4,9 36 0,0
16.02.2018 11:00:00 -1,4 -2,0 -0,2 0,1 0,5 2,2 14 8 23 12 WSW 11 56 0,0
16.02.2018 10:00:00 -2,4 -3,0 -0,2 0,1 0,5 2,2 13 7 24 13 WSW 3,3 59 0,0
16.02.2018 09:00:00 -3,4 -4,2 -0,2 0,0 0,5 2,2 13 7 23 12 W 19 60 0,0
16.02.2018 08:00:00 -4,7 -5,4 -0,2 0,0 0,5 2,2 8 4 18 10 W 1,9 4 0,0
16.02.2018 07:00:00 -3,6 -4,3 -0,2 0,0 0,5 2,2 7 4 16 9 NW 14 0 0,0
16.02.2018 06:00:00 -3,6 -4,3 -0,2 0,0 0,5 2,2 8 5 15 8 NW 19 0 0,0
16.02.2018 05:00:00 -2,8 -3,7 -0,2 0,0 0,5 2,2 9 5 22 12 NW 15 0 0,0
16.02.2018 04:00:00 -2,2 -2,8 -0,2 0,0 0,5 2,2 13 7 26 14 WSW 0,1 0 0,0
16.02.2018 03:00:00 -1,6 -2,0 -0,2 0,0 0,5 2,2 12 7 21 12 W 0,2 0 0,0
16.02.2018 02:00:00 -2,6 -3,2 -0,2 0,0 0,5 2,2 15 8 26 14 WSW 4,0 0 0,5
16.02.2018 01:00:00 -2,7 -3,4 -0,2 0,0 0,5 2,2 21 11 27 15 WSW 0,5 0 0,8
16.02.2018 00:00:00 -2,9 -3,5 -0,2 0,0 0,5 2,2 21 12 29 16 WSW 0,2 0 0,1
15.02.2018 23:00:00 -3,2 -3,8 -0,2 0,0 0,5 2,2 17 9 30 16 WSW 0,5 0 0,2
15.02.2018 22:00:00 -3,7 -4,5 -0,2 0,0 0,5 2,2 24 13 33 18 WSW 0,5 0 0,1
15.02.2018 21:00:00 -4,0 -4,7 -0,3 0,0 0,5 2,2 25 13 33 18 SW 0,4 0 0,4
15.02.2018 20:00:00 -4,3 -5,0 -0,3 0,0 0,5 2,2 25 13 38 20 SW 0,5 0 0,5
15.02.2018 19:00:00 -4,5 -5,3 -0,3 0,0 0,5 2,2 26 14 40 21 SW 0,3 0 0,3
15.02.2018 18:00:00 -4,8 -5,6 -0,3 0,0 0,5 2,2 27 15 47 25 SW 0,8 0 0,5
15.02.2018 17:00:00 -4,9 -5,6 -0,3 0,0 0,5 2,2 31 17 50 27 SW 0,6 0 0,0
15.02.2018 16:00:00 -5,0 -5,9 -0,3 0,0 0,5 2,2 31 17 54 29 SW 1,9 0 0,7
15.02.2018 15:00:00 -5,4 -6,5 -0,3 0,0 0,5 2,2 41 22 69 37 SW 0,8 0 0,3
15.02.2018 14:00:00 -5,3 -7,6 -0,3 0,0 0,5 2,2 40 22 65 35 SW 7 0 0,0
15.02.2018 13:00:00 -5,5 -8,0 -0,3 0,0 0,5 2,2 30 16 63 34 SSW 6 0 0,0
15.02.2018 12:00:00 -6,0 -8,0 -0,3 0,0 0,5 2,2 37 20 81 44 SSW 6 0 0,0

tt = Température de l'air
td = dewpoint
tt 5cm = Température de l'air 5cm
tt -5cm = Température de l'air -5cm
tt -20cm = Température de l'air -20cm
tt -100cm = Température de l'air -100cm
ff = Vitesse du vent
fx = gusts
dd = Direction du vent
vv = visibility
sd = Ensoleillement
rr = Quantités de précipitations

stations d'obs. à proximité